Harriston, Canada
Current Conditions -  °F | °C
As of 12:05 PM on Friday 24 Oct 2014 (Local Time) from CYKF Reporting Station
Scattered Clouds Scattered Clouds  
Wind Chill: 41°   Ceiling: Unl
Heat Index: 45°   Visibility: 9mi
Dew Point: 41°   Wind: 6mph
Humidity: 87%   Direction: 280°W
Pressure: 30.04"   Gusts: NA
Location:  43.92°N, 80.88°W
Report Text: CYKF 241605Z AUTO 28005KT 250V320 9SM SCT005 07/05 A3004 RMK SLP180
Loading
Personal Weather Stations






























Interactive Weather Map
Tropical Storm Tracking
New forecast layout! Learn more

10-Day Weather Forecast

Advertisements
Track Severe Weather on mobile